Time;durP1;ratioP1;P1;durP2;ratioP2;P2;SDS_P1;SDS_P2;PMS_P1;PMS_P2;Temp;Humidity;BMP_temperature;BMP_pressure;BME280_temperature;BME280_humidity;BME280_pressure;Samples;Min_cycle;Max_cycle;Signal;HPM_P1;HPM_P2
2023/01/12 00:00:47;;;;;;;18.10;2.80;;;;;;;12.23;70.57;100910.34;5049175;28;20116;-43
2023/01/12 00:03:13;;;;;;;17.77;2.65;;;;;;;12.34;71.14;100902.59;5051322;28;20140;-42
2023/01/12 00:05:38;;;;;;;19.00;3.15;;;;;;;12.25;71.37;100903.41;5047790;28;20064;-43
2023/01/12 00:08:03;;;;;;;20.42;2.95;;;;;;;12.12;72.03;100888.50;5050068;28;20040;-42
2023/01/12 00:10:29;;;;;;;15.65;2.75;;;;;;;12.18;72.68;100889.44;5046780;28;20055;-43
2023/01/12 00:12:54;;;;;;;21.33;3.72;;;;;;;12.38;72.52;100894.75;5049715;28;20033;-42
2023/01/12 00:16:33;;;;;;;21.40;3.22;;;;;;;11.99;74.34;100882.31;5049415;28;20041;-42
2023/01/12 00:18:05;;;;;;;24.55;3.35;;;;;;;12.31;73.24;100879.06;5052732;28;20493;-41
2023/01/12 00:20:30;;;;;;;21.02;3.35;;;;;;;11.95;75.05;100884.91;5049789;28;20037;-43
2023/01/12 00:22:57;;;;;;;26.77;3.75;;;;;;;12.62;73.28;100869.66;5051917;28;20063;-45
2023/01/12 00:25:22;;;;;;;26.77;3.95;;;;;;;12.46;73.02;100853.84;5048376;28;20405;-44
2023/01/12 00:27:48;;;;;;;30.05;4.30;;;;;;;12.25;75.22;100856.38;5051586;28;20037;-41
2023/01/12 00:30:13;;;;;;;30.67;4.57;;;;;;;12.23;75.49;100857.22;5049236;28;20090;-44
2023/01/12 00:32:38;;;;;;;32.80;4.32;;;;;;;12.43;75.13;100859.09;5051444;28;20044;-41
2023/01/12 00:35:04;;;;;;;35.30;4.25;;;;;;;12.11;76.37;100852.78;5048026;28;20056;-41
2023/01/12 00:37:29;;;;;;;38.88;4.78;;;;;;;12.25;76.12;100848.53;5050437;28;20065;-44
2023/01/12 00:39:55;;;;;;;37.70;4.80;;;;;;;12.41;75.17;100844.25;5088042;22;20149;-38
2023/01/12 00:45:23;;;;;;;32.85;4.45;;;;;;;12.54;75.22;100835.59;5088463;28;20416;-39
2023/01/12 00:47:48;;;;;;;33.65;4.47;;;;;;;12.73;74.58;100828.72;5090154;28;20599;-39
2023/01/12 00:50:14;;;;;;;36.13;4.95;;;;;;;12.59;74.70;100813.84;5087556;28;20107;-39
2023/01/12 00:52:39;;;;;;;35.55;4.85;;;;;;;12.44;76.36;100821.59;5087929;28;20028;-39
2023/01/12 00:55:05;;;;;;;36.78;5.00;;;;;;;12.29;75.96;100823.25;5087746;28;20103;-40
2023/01/12 00:57:30;;;;;;;33.78;4.88;;;;;;;12.63;75.36;100811.22;5090143;28;20414;-38
2023/01/12 00:59:58;;;;;;;40.30;5.50;;;;;;;12.24;77.30;100806.69;5087893;28;20114;-49
2023/01/12 01:02:23;;;;;;;34.63;4.57;;;;;;;12.75;75.56;100798.19;5090340;28;20043;-39
2023/01/12 01:04:49;;;;;;;36.30;5.10;;;;;;;12.52;76.31;100796.38;5088610;28;20396;-38
2023/01/12 01:07:16;;;;;;;34.55;5.28;;;;;;;12.54;76.38;100799.00;5092999;28;20077;-38
2023/01/12 01:09:42;;;;;;;38.30;4.65;;;;;;;12.33;77.41;100786.69;5095260;28;20471;-38
2023/01/12 01:12:07;;;;;;;34.70;5.03;;;;;;;13.15;74.48;100784.38;5089658;28;20042;-42
2023/01/12 01:14:32;;;;;;;36.13;4.68;;;;;;;12.84;75.09;100777.28;5095215;28;20020;-43
2023/01/12 01:16:57;;;;;;;32.72;4.90;;;;;;;12.58;76.38;100785.06;5093793;28;20035;-40
2023/01/12 01:19:23;;;;;;;38.33;5.05;;;;;;;12.44;77.42;100790.22;5094086;28;20024;-38
2023/01/12 01:21:48;;;;;;;44.05;5.47;;;;;;;12.51;77.03;100784.16;5089903;28;20496;-38
2023/01/12 01:24:14;;;;;;;43.25;5.55;;;;;;;12.16;78.34;100786.59;5094041;28;20453;-38
2023/01/12 01:26:40;;;;;;;39.13;5.13;;;;;;;12.49;77.59;100792.88;5090136;28;20046;-41
2023/01/12 01:29:06;;;;;;;34.83;5.07;;;;;;;12.75;76.12;100777.25;5092174;28;20082;-39
2023/01/12 01:31:32;;;;;;;31.20;4.63;;;;;;;12.54;76.93;100770.22;5089084;28;20032;-39
2023/01/12 01:33:57;;;;;;;28.10;4.75;;;;;;;12.32;77.79;100760.56;5092401;28;20143;-43
2023/01/12 01:36:23;;;;;;;31.83;4.25;;;;;;;12.61;75.96;100779.84;5090322;28;20043;-41
2023/01/12 01:38:49;;;;;;;28.58;4.18;;;;;;;12.55;76.28;100764.13;5095066;28;20146;-37
2023/01/12 01:41:26;;;;;;;35.40;4.55;;;;;;;12.55;76.43;100759.78;5091245;28;20043;-38
2023/01/12 01:44:21;;;;;;;23.45;4.10;;;;;;;12.77;75.46;100763.31;5094025;28;20563;-38
2023/01/12 01:46:54;;;;;;;23.50;3.65;;;;;;;12.36;76.38;100741.41;5079822;28;20090;-42
2023/01/12 01:49:46;;;;;;;25.67;3.42;;;;;;;12.19;78.57;100746.56;5093805;28;20035;-40
2023/01/12 01:52:17;;;;;;;23.55;3.35;;;;;;;12.28;76.78;100735.25;5089150;28;20081;-41
2023/01/12 01:54:50;;;;;;;18.90;3.17;;;;;;;12.23;77.57;100732.63;5094182;28;20024;-44
2023/01/12 01:57:16;;;;;;;18.92;2.90;;;;;;;12.40;76.92;100733.56;5090221;28;20094;-41
2023/01/12 01:59:46;;;;;;;19.52;2.70;;;;;;;12.40;76.87;100732.69;5090428;28;20031;-40
2023/01/12 02:02:12;;;;;;;16.90;2.75;;;;;;;12.42;77.58;100717.88;5092260;28;20040;-39
2023/01/12 02:04:37;;;;;;;19.05;2.92;;;;;;;12.26;77.67;100718.72;5090357;28;20089;-41
2023/01/12 02:07:05;;;;;;;18.02;2.85;;;;;;;12.63;75.85;100711.81;5092550;28;20051;-38
2023/01/12 02:09:31;;;;;;;17.35;2.72;;;;;;;12.53;76.61;100700.47;5090247;28;20496;-39
2023/01/12 02:18:03;;;;;;;18.42;2.70;;;;;;;12.12;77.82;100685.53;5092395;28;20062;-39
2023/01/12 02:21:02;;;;;;;19.80;2.67;;;;;;;12.71;75.77;100679.59;5088504;28;20040;-39
2023/01/12 02:23:43;;;;;;;18.08;2.78;;;;;;;12.45;76.56;100662.97;5093701;28;20024;-38
2023/01/12 02:26:35;;;;;;;22.88;3.60;;;;;;;12.48;76.54;100642.09;5088767;28;20109;-43
2023/01/12 02:29:00;;;;;;;19.10;3.10;;;;;;;12.70;76.57;100662.16;5090485;28;20025;-40
2023/01/12 02:31:38;;;;;;;27.00;3.50;;;;;;;12.02;77.89;100690.69;5092338;28;20044;-39
2023/01/12 02:34:23;;;;;;;18.88;3.03;;;;;;;12.28;77.70;100662.94;5091636;28;20061;-39
2023/01/12 02:37:26;;;;;;;19.40;2.55;;;;;;;12.20;78.04;100659.41;5093833;28;20044;-40
2023/01/12 02:40:03;;;;;;;17.42;2.95;;;;;;;11.98;78.29;100650.63;5090524;28;20496;-38
2023/01/12 02:42:40;;;;;;;20.80;3.28;;;;;;;12.00;77.56;100638.47;5092367;28;20097;-38
2023/01/12 02:45:05;;;;;;;18.50;2.97;;;;;;;11.88;77.77;100640.16;5089253;27;20102;-41
2023/01/12 02:47:37;;;;;;;20.00;3.10;;;;;;;12.14;77.50;100631.53;5092999;28;20040;-39
2023/01/12 02:50:08;;;;;;;13.73;2.35;;;;;;;12.06;77.17;100616.72;5090060;28;20119;-37
2023/01/12 02:52:33;;;;;;;16.80;2.40;;;;;;;12.40;75.37;100608.06;5090365;28;20059;-41
2023/01/12 02:55:03;;;;;;;17.90;2.72;;;;;;;12.32;75.69;100601.09;5089516;28;20036;-41
2023/01/12 02:57:32;;;;;;;17.75;2.65;;;;;;;12.28;76.03;100583.66;5092337;28;20070;-41
2023/01/12 03:00:00;;;;;;;18.63;2.85;;;;;;;12.40;75.96;100568.84;5089929;28;20122;-38
2023/01/12 03:02:26;;;;;;;13.75;2.30;;;;;;;12.43;75.39;100561.03;5091230;28;20040;-40
2023/01/12 03:04:52;;;;;;;19.65;2.58;;;;;;;12.66;75.49;100558.41;5089833;28;20085;-39
2023/01/12 03:07:23;;;;;;;17.77;3.20;;;;;;;12.32;76.96;100560.13;5091862;28;20036;-40
2023/01/12 03:09:54;;;;;;;22.48;2.83;;;;;;;12.11;77.23;100558.38;5089176;28;20064;-44
2023/01/12 03:12:26;;;;;;;13.30;2.50;;;;;;;12.31;76.71;100547.06;5091103;28;20146;-38
2023/01/12 03:14:54;;;;;;;13.82;2.63;;;;;;;12.53;75.82;100522.66;5089503;28;20036;-39
2023/01/12 03:17:59;;;;;;;10.63;2.25;;;;;;;12.38;75.98;100484.31;5091668;28;20051;-39
2023/01/12 03:20:39;;;;;;;10.43;2.60;;;;;;;12.56;76.05;100499.16;5047593;28;20037;-40
2023/01/12 03:23:17;;;;;;;13.25;2.58;;;;;;;12.39;76.16;100465.16;5052484;28;20032;-39
2023/01/12 03:25:44;;;;;;;15.50;2.40;;;;;;;12.56;75.79;100465.16;5080439;28;20043;-39
2023/01/12 03:28:13;;;;;;;10.45;2.20;;;;;;;12.35;76.30;100452.97;5091801;28;20077;-39
2023/01/12 03:30:42;;;;;;;8.13;1.80;;;;;;;12.60;75.35;100430.28;5087024;28;20067;-42
2023/01/12 03:33:09;;;;;;;9.43;2.08;;;;;;;12.24;76.32;100398.97;5091906;28;20111;-38
2023/01/12 03:35:42;;;;;;;7.55;1.92;;;;;;;12.58;75.71;100421.56;5087973;28;20032;-40
2023/01/12 03:38:23;;;;;;;9.35;2.60;;;;;;;12.66;75.13;100426.78;5090099;28;20736;-37
2023/01/12 03:40:58;;;;;;;13.50;2.63;;;;;;;12.71;75.21;100419.78;5087249;28;20522;-40
2023/01/12 03:43:31;;;;;;;10.55;2.28;;;;;;;12.32;76.46;100399.84;5092114;28;20020;-39
2023/01/12 03:46:07;;;;;;;10.93;2.47;;;;;;;12.59;75.56;100402.38;5086657;28;20029;-39
2023/01/12 03:48:35;;;;;;;9.57;2.60;;;;;;;12.01;76.98;100398.97;5091763;28;20028;-39
2023/01/12 03:51:11;;;;;;;11.52;2.40;;;;;;;12.46;75.58;100379.75;5087162;28;20041;-42
2023/01/12 03:53:38;;;;;;;9.55;2.42;;;;;;;12.42;75.69;100394.56;5091750;28;20035;-39
2023/01/12 03:56:07;;;;;;;10.68;2.70;;;;;;;12.40;75.84;100374.53;5087670;28;20069;-39
2023/01/12 03:58:34;;;;;;;6.63;2.10;;;;;;;12.25;76.53;100377.19;5091859;28;20024;-39
2023/01/12 04:01:00;;;;;;;6.80;2.30;;;;;;;12.24;77.19;100364.97;5085875;28;20399;-44
2023/01/12 04:03:26;;;;;;;8.98;2.40;;;;;;;12.09;76.70;100347.56;5091696;28;20019;-40
2023/01/12 04:05:51;;;;;;;8.63;2.30;;;;;;;12.07;76.79;100341.50;5088424;28;20429;-39
2023/01/12 04:08:17;;;;;;;8.93;2.60;;;;;;;11.86;77.48;100346.72;5093692;28;20055;-39
2023/01/12 04:10:42;;;;;;;5.50;2.35;;;;;;;11.63;78.54;100337.13;5088624;28;20031;-39
2023/01/12 04:13:08;;;;;;;8.00;2.45;;;;;;;11.87;77.91;100338.91;5093622;28;20055;-40
2023/01/12 04:15:41;;;;;;;7.95;2.20;;;;;;;11.81;78.69;100331.06;5089936;28;20036;-39
2023/01/12 04:18:07;;;;;;;9.40;2.30;;;;;;;11.81;78.15;100306.69;5092140;28;20531;-41
2023/01/12 04:20:32;;;;;;;9.13;2.47;;;;;;;11.86;77.98;100339.75;5085895;28;20031;-44
2023/01/12 04:22:58;;;;;;;7.57;2.05;;;;;;;11.82;78.66;100329.31;5091015;28;20557;-37
2023/01/12 04:25:23;;;;;;;8.63;2.28;;;;;;;12.07;77.32;100307.53;5086733;28;20032;-40
2023/01/12 04:28:00;;;;;;;7.68;2.13;;;;;;;12.00;78.25;100326.69;5089368;28;20372;-39
2023/01/12 04:30:27;;;;;;;6.22;2.03;;;;;;;12.17;77.55;100310.13;5086037;28;20503;-38
2023/01/12 04:32:53;;;;;;;7.47;1.83;;;;;;;11.89;78.82;100334.56;5090845;28;20023;-38
2023/01/12 04:35:19;;;;;;;7.53;2.03;;;;;;;12.07;78.24;100307.53;5086680;28;20035;-39
2023/01/12 04:37:44;;;;;;;6.63;2.10;;;;;;;11.81;79.11;100302.34;5089966;28;20024;-39
2023/01/12 04:40:13;;;;;;;7.25;1.77;;;;;;;11.73;78.45;100319.69;5086955;28;20032;-37
2023/01/12 04:43:20;;;;;;;8.02;1.90;;;;;;;11.33;80.60;100318.81;5091422;28;20023;-40
2023/01/12 04:45:42;;;;;;;5.13;1.70;;;;;;;11.72;79.42;100310.13;5088715;28;20074;-38
2023/01/12 04:48:10;;;;;;;8.05;1.85;;;;;;;12.12;78.83;100303.16;5093888;28;20044;-39
2023/01/12 04:50:37;;;;;;;7.70;2.00;;;;;;;11.78;79.49;100311.03;5088444;28;20039;-39
2023/01/12 04:53:04;;;;;;;4.43;1.77;;;;;;;11.87;79.21;100319.75;5093957;28;20395;-38
2023/01/12 04:55:30;;;;;;;5.45;2.20;;;;;;;11.74;79.50;100314.53;5086494;28;20031;-39
2023/01/12 04:57:56;;;;;;;6.38;1.90;;;;;;;11.81;80.24;100328.44;5091408;28;20047;-39
2023/01/12 05:00:22;;;;;;;5.28;1.73;;;;;;;12.16;78.61;100303.16;5086541;28;20572;-35
2023/01/12 05:02:47;;;;;;;9.40;1.90;;;;;;;11.96;79.28;100285.75;5090880;28;20028;-41
2023/01/12 05:05:13;;;;;;;4.63;1.60;;;;;;;11.84;79.71;100309.28;5087029;28;20625;-39
2023/01/12 05:10:21;;;;;;;5.13;1.60;;;;;;;12.13;79.14;100317.97;5090577;28;20127;-42
2023/01/12 05:10:23;;;;;;;6.18;1.30;;;;;;;11.97;79.82;100318.84;5085674;28;20090;-41
2023/01/12 05:12:49;;;;;;;2.88;1.20;;;;;;;12.23;79.09;100316.19;5090551;28;20462;-40
2023/01/12 05:15:14;;;;;;;4.38;1.20;;;;;;;12.38;78.36;100322.25;5087571;28;20123;-39
2023/01/12 05:17:39;;;;;;;5.80;1.30;;;;;;;12.24;78.40;100323.16;5091110;28;20529;-41
2023/01/12 05:20:05;;;;;;;4.85;0.93;;;;;;;11.94;80.19;100291.00;5087130;28;20048;-38
2023/01/12 05:22:31;;;;;;;3.67;0.77;;;;;;;12.47;79.16;100316.13;5089516;28;20024;-39
2023/01/12 05:24:56;;;;;;;3.85;0.90;;;;;;;12.24;79.93;100318.81;5086077;28;20124;-41
2023/01/12 05:27:22;;;;;;;3.65;0.90;;;;;;;12.55;79.74;100309.13;5089965;28;20089;-39
2023/01/12 05:29:48;;;;;;;3.80;0.88;;;;;;;12.40;79.67;100330.97;5087272;28;20036;-38
2023/01/12 05:32:13;;;;;;;2.92;0.90;;;;;;;12.60;79.65;100299.53;5089083;28;20029;-39
2023/01/12 05:34:39;;;;;;;3.30;1.00;;;;;;;12.45;79.34;100286.50;5086436;28;20051;-42
2023/01/12 05:37:04;;;;;;;5.75;1.40;;;;;;;12.46;80.18;100281.28;5089428;28;20625;-38
2023/01/12 05:39:29;;;;;;;6.47;1.20;;;;;;;12.47;79.85;100272.56;5081829;28;20051;-39
2023/01/12 05:44:38;;;;;;;5.43;1.17;;;;;;;12.55;80.41;100283.00;5078970;28;20055;-43
2023/01/12 05:47:04;;;;;;;3.55;0.82;;;;;;;12.81;80.31;100309.00;5078573;28;20329;-39
2023/01/12 05:49:29;;;;;;;7.03;1.33;;;;;;;12.71;80.25;100308.19;5082399;28;20028;-38
2023/01/12 05:51:54;;;;;;;6.25;1.48;;;;;;;12.65;80.44;100331.75;5081394;28;20107;-40
2023/01/12 05:54:20;;;;;;;7.50;1.40;;;;;;;13.07;79.40;100312.38;5078279;28;20584;-40
2023/01/12 05:56:45;;;;;;;9.82;2.15;;;;;;;12.96;79.74;100285.41;5082728;28;20045;-38
2023/01/12 05:59:11;;;;;;;12.50;2.13;;;;;;;12.72;80.40;100286.41;5078182;28;20640;-41
2023/01/12 06:01:37;;;;;;;13.07;2.13;;;;;;;12.84;79.29;100267.16;5083001;28;20082;-39
2023/01/12 06:04:03;;;;;;;16.70;2.22;;;;;;;12.88;79.93;100300.25;5086359;28;20039;-40
2023/01/12 06:06:30;;;;;;;17.13;2.78;;;;;;;12.75;80.19;100290.72;5083056;28;20040;-38
2023/01/12 06:08:56;;;;;;;17.98;2.72;;;;;;;12.76;80.25;100275.03;5086354;28;20301;-38
2023/01/12 06:14:06;;;;;;;19.07;3.30;;;;;;;13.10;79.28;100319.34;5082532;28;20077;-38
2023/01/12 06:16:31;;;;;;;22.15;2.95;;;;;;;13.19;79.25;100306.22;5068454;28;20404;-43
2023/01/12 06:18:57;;;;;;;20.13;3.25;;;;;;;12.90;79.94;100317.69;5086466;28;20028;-47
2023/01/12 06:21:23;;;;;;;27.55;4.07;;;;;;;12.95;79.57;100310.69;5081266;28;20074;-39
2023/01/12 06:23:48;;;;;;;24.10;3.13;;;;;;;13.28;78.80;100307.06;5085687;28;20028;-40
2023/01/12 06:26:14;;;;;;;25.65;3.63;;;;;;;13.12;79.12;100309.72;5082084;28;20040;-39
2023/01/12 06:28:41;;;;;;;27.17;4.00;;;;;;;12.87;79.94;100314.22;5086671;28;20040;-39
2023/01/12 06:31:09;;;;;;;23.58;3.65;;;;;;;13.12;77.95;100292.31;5081920;28;20024;-41
2023/01/12 06:33:34;;;;;;;28.23;4.15;;;;;;;13.06;79.11;100281.84;5086425;28;20115;-41
2023/01/12 06:36:00;;;;;;;27.90;4.10;;;;;;;13.22;78.67;100299.25;5087118;28;20119;-39
2023/01/12 06:38:27;;;;;;;35.90;4.50;;;;;;;13.14;79.28;100301.03;5083219;28;20075;-40
2023/01/12 06:40:56;;;;;;;28.42;4.82;;;;;;;13.40;78.40;100308.72;5099922;22;20043;-41
2023/01/12 06:43:21;;;;;;;29.55;4.35;;;;;;;13.12;79.00;100314.94;5082609;28;20036;-42
2023/01/12 06:45:47;;;;;;;31.92;4.75;;;;;;;12.85;79.63;100292.44;5086681;28;20035;-41
2023/01/12 06:48:12;;;;;;;33.38;5.20;;;;;;;13.00;79.94;100308.91;5091138;28;20032;-40
2023/01/12 06:50:37;;;;;;;33.50;5.18;;;;;;;13.47;78.67;100323.50;5094887;28;20464;-45
2023/01/12 06:53:05;;;;;;;31.48;4.63;;;;;;;13.39;78.49;100334.03;5087572;28;20119;-42
2023/01/12 06:55:31;;;;;;;32.30;5.25;;;;;;;13.46;77.68;100334.84;5080529;28;20038;-43
2023/01/12 06:58:00;;;;;;;33.05;4.70;;;;;;;13.46;78.07;100327.00;5083968;28;20024;-42
2023/01/12 07:00:25;;;;;;;28.98;4.78;;;;;;;13.10;78.76;100340.28;5079525;28;20085;-43
2023/01/12 07:02:51;;;;;;;27.88;4.20;;;;;;;13.49;77.77;100326.09;5084255;28;20319;-42
2023/01/12 07:05:17;;;;;;;24.00;4.28;;;;;;;13.52;77.38;100339.16;5080500;28;20039;-42
2023/01/12 07:07:42;;;;;;;25.00;3.80;;;;;;;13.57;77.26;100342.63;5084649;28;20036;-42
2023/01/12 07:10:11;;;;;;;31.20;4.07;;;;;;;13.56;77.35;100344.38;5080207;28;20034;-49
2023/01/12 07:12:37;;;;;;;33.80;4.85;;;;;;;13.35;77.69;100353.25;5083086;28;20036;-42
2023/01/12 07:15:03;;;;;;;26.67;4.35;;;;;;;13.34;78.52;100321.84;5084637;28;20032;-43
2023/01/12 07:17:29;;;;;;;26.88;3.88;;;;;;;13.26;79.42;100350.69;5081288;28;20079;-43
2023/01/12 07:19:55;;;;;;;25.90;4.28;;;;;;;13.43;78.70;100350.56;5083789;28;20535;-42
2023/01/12 07:22:20;;;;;;;25.67;4.25;;;;;;;13.10;78.98;100359.47;5079140;28;20036;-43
2023/01/12 07:24:46;;;;;;;22.15;3.42;;;;;;;13.58;78.24;100352.22;5083504;28;20059;-44
2023/01/12 07:27:11;;;;;;;34.80;4.70;;;;;;;13.58;78.22;100344.38;5079758;28;20036;-42
2023/01/12 07:29:36;;;;;;;33.30;4.38;;;;;;;13.43;78.42;100355.81;5083415;28;20024;-42
2023/01/12 07:32:02;;;;;;;29.65;4.40;;;;;;;13.29;78.18;100337.59;5082649;28;20043;-41
2023/01/12 07:34:28;;;;;;;32.22;4.45;;;;;;;13.59;77.99;100361.81;5079596;28;20047;-44
2023/01/12 07:36:54;;;;;;;26.92;3.65;;;;;;;13.40;78.87;100379.41;5083441;28;20031;-41
2023/01/12 07:39:19;;;;;;;28.73;4.03;;;;;;;13.67;78.23;100362.63;5079235;28;20036;-41
2023/01/12 07:44:28;;;;;;;30.73;3.97;;;;;;;13.46;78.70;100361.03;5079763;28;20126;-41
2023/01/12 07:46:53;;;;;;;27.40;3.72;;;;;;;13.62;77.69;100382.75;5086793;28;20052;-46
2023/01/12 07:49:19;;;;;;;28.05;4.20;;;;;;;13.65;77.89;100381.00;5084536;28;20034;-41
2023/01/12 07:51:44;;;;;;;32.42;4.75;;;;;;;13.26;78.87;100379.47;5079786;28;20052;-43
2023/01/12 07:54:09;;;;;;;26.30;4.20;;;;;;;13.48;78.20;100395.06;5061887;28;20025;-43
2023/01/12 07:56:35;;;;;;;32.97;4.78;;;;;;;13.43;78.08;100384.59;5064638;28;20033;-45
2023/01/12 07:59:01;;;;;;;29.48;4.20;;;;;;;13.49;78.44;100394.16;5064560;28;20037;-41
2023/01/12 08:01:26;;;;;;;28.02;4.07;;;;;;;13.66;77.73;100395.81;5058556;28;20032;-43
2023/01/12 08:03:51;;;;;;;27.25;3.85;;;;;;;13.44;78.01;100394.22;5062799;28;20028;-43
2023/01/12 08:06:17;;;;;;;22.80;3.58;;;;;;;13.57;77.74;100410.72;5060553;28;20400;-42
2023/01/12 08:08:43;;;;;;;31.70;3.88;;;;;;;13.99;77.09;100404.31;5064566;28;20116;-46
2023/01/12 08:11:10;;;;;;;26.17;3.80;;;;;;;13.72;77.53;100408.00;5060381;28;20035;-44
2023/01/12 08:13:37;;;;;;;22.85;3.50;;;;;;;13.93;76.59;100418.31;5063256;28;20033;-43
2023/01/12 08:16:11;;;;;;;29.88;3.80;;;;;;;13.88;77.17;100414.00;5062111;28;20031;-42
2023/01/12 08:18:42;;;;;;;21.98;3.63;;;;;;;13.66;76.77;100411.50;5058751;28;20047;-42
2023/01/12 08:21:13;;;;;;;23.23;3.38;;;;;;;13.82;76.76;100410.56;5057746;28;20036;-44
2023/01/12 08:23:43;;;;;;;24.88;4.13;;;;;;;13.46;77.60;100436.97;5061710;28;20038;-43
2023/01/12 08:26:16;;;;;;;24.88;3.50;;;;;;;13.76;77.27;100422.81;5078431;28;20159;-46
2023/01/12 08:28:47;;;;;;;30.48;4.20;;;;;;;13.70;77.04;100405.41;5082577;28;20397;-42
2023/01/12 08:31:15;;;;;;;24.42;3.80;;;;;;;13.68;77.21;100422.00;5078878;28;20035;-42
2023/01/12 08:33:42;;;;;;;22.83;3.92;;;;;;;13.57;77.64;100423.81;5083271;28;20093;-44
2023/01/12 08:36:10;;;;;;;29.88;4.22;;;;;;;13.91;76.50;100427.94;5077974;28;20048;-42
2023/01/12 08:38:36;;;;;;;26.88;4.03;;;;;;;13.49;78.06;100436.94;5082194;28;20036;-44
2023/01/12 08:44:09;;;;;;;33.78;5.13;;;;;;;13.47;78.28;100436.09;5061409;28;20519;-41
2023/01/12 08:46:46;;;;;;;27.90;4.25;;;;;;;13.68;77.20;100429.84;5058648;28;20523;-42
2023/01/12 08:49:12;;;;;;;37.42;4.97;;;;;;;13.49;77.73;100439.56;5071020;28;20037;-38
2023/01/12 08:51:38;;;;;;;30.88;4.40;;;;;;;13.59;77.50;100438.66;5072944;28;20408;-42
2023/01/12 08:54:04;;;;;;;31.23;4.60;;;;;;;13.96;76.83;100446.28;5058869;28;20034;-54
2023/01/12 08:56:30;;;;;;;27.98;4.22;;;;;;;13.62;78.00;100443.84;5061517;28;20417;-43
2023/01/12 08:58:56;;;;;;;31.17;4.60;;;;;;;13.50;78.00;100443.94;5062029;28;20021;-43
2023/01/12 09:01:21;;;;;;;30.63;4.63;;;;;;;13.73;76.68;100456.88;5059893;28;20497;-45
2023/01/12 09:03:47;;;;;;;30.08;5.05;;;;;;;13.49;76.90;100441.31;5065469;28;20032;-42
2023/01/12 09:06:15;;;;;;;34.50;4.88;;;;;;;13.76;76.54;100449.91;5059658;28;20040;-42
2023/01/12 09:08:41;;;;;;;36.35;5.10;;;;;;;13.93;76.20;100448.91;5062349;28;20572;-41
2023/01/12 09:11:08;;;;;;;34.25;5.30;;;;;;;13.77;76.17;100458.63;5057625;28;20032;-43
2023/01/12 09:13:34;;;;;;;30.85;4.72;;;;;;;14.04;75.52;100455.81;5062804;28;20056;-44
2023/01/12 09:16:06;;;;;;;27.08;4.85;;;;;;;13.87;76.09;100452.44;5063166;28;20127;-43
2023/01/12 09:18:32;;;;;;;30.38;4.82;;;;;;;13.82;76.10;100462.09;5059460;28;20472;-43
2023/01/12 09:21:00;;;;;;;32.00;5.30;;;;;;;13.72;76.36;100476.13;5062627;28;20111;-42
2023/01/12 09:23:26;;;;;;;32.58;5.30;;;;;;;13.92;76.10;100474.22;5057924;28;20086;-47
2023/01/12 09:25:51;;;;;;;30.00;4.55;;;;;;;14.13;74.93;100463.63;5061555;28;20040;-42
2023/01/12 09:28:16;;;;;;;26.85;4.60;;;;;;;13.79;76.12;100465.56;5058388;28;20455;-42
2023/01/12 09:30:42;;;;;;;29.63;4.63;;;;;;;13.82;75.16;100491.78;5060474;28;20032;-41
2023/01/12 09:33:07;;;;;;;25.98;4.05;;;;;;;14.31;74.24;100496.69;5058044;28;20028;-43
2023/01/12 09:35:32;;;;;;;26.80;4.05;;;;;;;14.33;74.15;100491.44;5063419;28;20526;-43
2023/01/12 09:37:57;;;;;;;24.83;3.83;;;;;;;14.00;75.41;100495.16;5067854;28;20405;-45
2023/01/12 09:40:23;;;;;;;31.23;4.05;;;;;;;13.99;75.63;100496.91;5063722;28;20288;-42
2023/01/12 09:48:22;;;;;;;27.77;4.10;;;;;;;13.83;76.80;100516.22;5064023;28;20211;-42
2023/01/12 09:50:56;;;;;;;21.52;3.78;;;;;;;14.20;75.72;100523.00;5064943;28;20286;-38
2023/01/12 09:53:30;;;;;;;22.38;3.33;;;;;;;13.83;76.97;100531.94;5061806;28;20036;-44
2023/01/12 09:56:07;;;;;;;23.75;3.47;;;;;;;14.03;76.23;100526.56;5065225;28;20029;-41
2023/01/12 09:58:38;;;;;;;21.88;3.72;;;;;;;14.09;75.80;100521.28;5061234;28;20040;-44
2023/01/12 10:01:10;;;;;;;30.15;4.05;;;;;;;13.91;76.17;100540.63;5062672;28;20487;-53
2023/01/12 10:03:40;;;;;;;34.05;4.43;;;;;;;14.29;75.52;100535.16;5062627;28;20138;-40
2023/01/12 10:06:13;;;;;;;25.15;3.80;;;;;;;14.23;75.89;100536.06;5061824;28;20032;-44
2023/01/12 10:08:45;;;;;;;26.40;3.70;;;;;;;13.70;76.89;100525.03;5065458;28;20512;-40
2023/01/12 10:11:34;;;;;;;29.67;4.03;;;;;;;13.84;76.40;100532.81;5060588;28;20036;-42
2023/01/12 10:14:23;;;;;;;27.20;3.95;;;;;;;13.92;76.39;100531.00;5063276;28;20039;-42
2023/01/12 10:17:11;;;;;;;27.50;4.28;;;;;;;14.02;76.73;100537.97;5061929;28;20039;-42
2023/01/12 10:19:54;;;;;;;26.10;3.85;;;;;;;13.80;77.31;100535.44;5062560;28;20062;-41
2023/01/12 10:22:35;;;;;;;28.77;3.97;;;;;;;13.89;76.71;100547.66;5061458;28;20147;-42
2023/01/12 10:25:11;;;;;;;31.45;4.38;;;;;;;13.81;77.49;100552.03;5066998;28;20082;-43
2023/01/12 10:27:41;;;;;;;26.52;4.53;;;;;;;14.01;76.82;100541.47;5061538;28;20443;-43
2023/01/12 10:30:12;;;;;;;25.80;4.10;;;;;;;14.03;76.61;100548.41;5060963;28;20382;-41
2023/01/12 10:32:38;;;;;;;27.95;4.50;;;;;;;13.88;77.55;100542.41;5065181;28;20037;-43
2023/01/12 10:35:11;;;;;;;32.55;4.25;;;;;;;13.60;77.24;100541.69;5061699;28;20051;-52
2023/01/12 10:37:50;;;;;;;23.02;3.38;;;;;;;13.69;77.52;100534.63;5065704;28;20032;-42
2023/01/12 10:40:25;;;;;;;28.05;4.10;;;;;;;14.09;76.54;100551.00;5062605;28;20039;-41
2023/01/12 10:43:30;;;;;;;27.98;4.40;;;;;;;13.71;77.16;100534.63;5064991;28;20485;-41
2023/01/12 10:46:11;;;;;;;26.02;4.03;;;;;;;13.89;76.13;100557.25;5062247;28;20028;-43
2023/01/12 10:48:43;;;;;;;29.17;4.60;;;;;;;13.97;76.02;100537.09;5063367;28;20115;-41
2023/01/12 10:51:34;;;;;;;26.83;4.45;;;;;;;13.97;76.25;100542.34;5062523;28;20025;-40
2023/01/12 10:54:08;;;;;;;22.45;3.47;;;;;;;14.26;75.34;100529.94;5064540;28;20047;-41
2023/01/12 10:56:36;;;;;;;30.63;4.65;;;;;;;14.04;75.77;100528.31;5060845;28;20111;-42
2023/01/12 10:59:05;;;;;;;24.85;3.72;;;;;;;13.92;75.79;100518.78;5063856;28;20040;-40
2023/01/12 11:02:02;;;;;;;28.08;4.10;;;;;;;13.87;76.60;100538.91;5059244;28;20028;-41
2023/01/12 11:04:29;;;;;;;23.33;4.30;;;;;;;13.89;76.16;100512.69;5059976;28;20033;-41
2023/01/12 11:06:54;;;;;;;22.10;3.65;;;;;;;14.15;75.54;100530.00;5063218;28;20492;-43
2023/01/12 11:09:28;;;;;;;28.17;3.88;;;;;;;14.09;75.49;100522.16;5060386;28;20330;-46
2023/01/12 11:12:17;;;;;;;22.58;4.00;;;;;;;14.47;74.74;100524.53;5062981;28;20086;-42
2023/01/12 11:14:58;;;;;;;23.63;3.95;;;;;;;14.32;74.21;100529.03;5059709;28;20024;-42
2023/01/12 11:17:35;;;;;;;25.20;3.83;;;;;;;14.06;76.23;100518.72;5059531;28;22716;-43
2023/01/12 11:20:03;;;;;;;24.52;3.60;;;;;;;13.86;76.33;100523.19;5065081;28;20032;-42
2023/01/12 11:22:33;;;;;;;18.20;3.42;;;;;;;14.47;74.53;100519.31;5062788;28;20060;-42
2023/01/12 11:25:09;;;;;;;22.67;4.32;;;;;;;14.32;74.53;100529.91;5065696;28;20142;-44
2023/01/12 11:27:51;;;;;;;25.65;3.63;;;;;;;14.21;74.47;100513.34;5058929;28;20109;-39
2023/01/12 11:30:36;;;;;;;25.38;4.03;;;;;;;14.46;74.15;100508.81;5059367;28;20579;-39
2023/01/12 11:33:12;;;;;;;24.92;3.60;;;;;;;14.17;75.14;100520.38;5064464;28;20039;-43
2023/01/12 11:35:48;;;;;;;22.48;3.80;;;;;;;14.29;74.96;100518.53;5062707;28;20040;-42
2023/01/12 11:38:17;;;;;;;23.50;3.58;;;;;;;14.19;75.13;100516.00;5059005;28;20369;-39
2023/01/12 11:40:43;;;;;;;25.45;4.05;;;;;;;14.22;74.83;100518.59;5062583;28;20044;-41
2023/01/12 11:46:17;;;;;;;25.00;3.70;;;;;;;14.25;75.08;100520.31;5063111;28;20089;-44
2023/01/12 11:49:11;;;;;;;19.80;3.78;;;;;;;14.46;74.23;100511.44;5059801;28;20082;-45
2023/01/12 11:51:37;;;;;;;22.42;3.53;;;;;;;14.15;75.20;100516.88;5058556;28;20040;-43
2023/01/12 11:54:06;;;;;;;22.98;3.70;;;;;;;13.85;75.81;100524.06;5063265;28;20052;-39
2023/01/12 11:56:50;;;;;;;24.77;3.60;;;;;;;14.31;74.70;100494.06;5060435;28;20492;-38
2023/01/12 11:59:32;;;;;;;21.10;3.28;;;;;;;14.33;75.09;100507.16;5059875;28;20025;-43